Time;durP1;ratioP1;P1;durP2;ratioP2;P2;SDS_P1;SDS_P2;PMS_P1;PMS_P2;Temp;Humidity;BMP_temperature;BMP_pressure;BME280_temperature;BME280_humidity;BME280_pressure;Samples;Min_cycle;Max_cycle;Signal;HPM_P1;HPM_P2
2023/09/06 00:00:37;;;;;;;4.72;2.97;;;;;;;19.63;82.69;101753.41;5031154;28;20525;-85
2023/09/06 00:03:03;;;;;;;5.22;2.60;;;;;;;19.65;83.10;101748.75;5029182;28;20040;-85
2023/09/06 00:05:29;;;;;;;5.50;2.90;;;;;;;19.62;83.65;101751.72;5031102;28;20034;-85
2023/09/06 00:07:55;;;;;;;3.03;2.38;;;;;;;19.61;84.35;101749.16;5029995;28;20156;-85
2023/09/06 00:10:20;;;;;;;5.80;2.90;;;;;;;19.58;83.89;101754.81;5027707;28;20101;-84
2023/09/06 00:12:46;;;;;;;5.03;3.05;;;;;;;19.56;84.19;101743.44;5031542;28;20553;-85
2023/09/06 00:15:12;;;;;;;5.43;3.10;;;;;;;19.53;83.95;101749.09;5031107;28;20084;-85
2023/09/06 00:17:40;;;;;;;6.43;3.47;;;;;;;19.47;84.14;101741.66;5031808;28;20025;-85
2023/09/06 00:20:21;;;;;;;5.30;3.10;;;;;;;19.38;86.22;101741.56;5029233;28;20489;-85
2023/09/06 00:22:55;;;;;;;4.57;2.80;;;;;;;19.32;86.88;101739.50;5030491;28;20037;-85
2023/09/06 00:25:21;;;;;;;4.10;2.97;;;;;;;19.29;87.09;101738.94;5030706;28;20029;-85
2023/09/06 00:27:46;;;;;;;5.15;3.20;;;;;;;19.27;87.49;101735.59;5024490;28;20036;-85
2023/09/06 00:30:11;;;;;;;3.92;2.80;;;;;;;19.24;87.32;101736.72;5034376;28;20036;-85
2023/09/06 00:32:40;;;;;;;3.95;2.83;;;;;;;19.19;87.58;101728.31;5029575;28;20033;-85
2023/09/06 00:35:06;;;;;;;5.75;2.88;;;;;;;19.16;88.05;101733.94;5028769;28;20489;-85
2023/09/06 00:37:39;;;;;;;5.05;2.90;;;;;;;19.10;88.63;101739.88;5030232;28;20028;-85
2023/09/06 00:40:17;;;;;;;4.55;2.80;;;;;;;19.02;88.84;101731.75;5027758;28;20401;-85
2023/09/06 00:42:46;;;;;;;5.47;3.25;;;;;;;19.02;88.78;101737.09;5028361;28;20078;-85
2023/09/06 00:45:12;;;;;;;6.88;3.30;;;;;;;18.97;89.55;101739.38;5026569;28;20076;-85
2023/09/06 00:47:37;;;;;;;4.22;3.03;;;;;;;18.97;88.31;101739.38;5029340;28;20183;-85
2023/09/06 00:50:04;;;;;;;4.80;2.80;;;;;;;18.99;88.26;101743.56;5029663;28;20037;-85
2023/09/06 00:52:30;;;;;;;5.07;2.78;;;;;;;18.99;87.58;101743.56;5029971;28;20573;-85
2023/09/06 00:54:57;;;;;;;4.28;2.85;;;;;;;19.02;87.42;101737.09;5039847;28;20182;-85
2023/09/06 00:57:22;;;;;;;4.35;2.95;;;;;;;19.03;87.50;101744.94;5028543;28;20497;-86
2023/09/06 00:59:50;;;;;;;3.92;3.00;;;;;;;19.06;87.18;101743.81;5027074;28;20021;-85
2023/09/06 01:02:15;;;;;;;7.53;3.03;;;;;;;19.09;86.87;101738.19;5010031;28;20034;-86
2023/09/06 01:04:44;;;;;;;4.90;3.05;;;;;;;19.09;86.84;101744.34;5024295;28;20032;-86
2023/09/06 01:07:13;;;;;;;6.93;3.05;;;;;;;19.14;86.72;101753.75;5028870;28;20033;-85
2023/09/06 01:09:39;;;;;;;6.88;3.08;;;;;;;19.15;86.79;101748.25;5030387;28;20036;-86
2023/09/06 01:12:05;;;;;;;5.30;3.03;;;;;;;19.14;86.47;101749.25;5030087;28;20025;-86
2023/09/06 01:14:30;;;;;;;5.15;3.20;;;;;;;19.12;86.51;101745.06;5029287;28;20064;-86
2023/09/06 01:16:55;;;;;;;5.38;3.17;;;;;;;19.13;86.50;101739.56;5027797;28;20025;-87
2023/09/06 01:19:26;;;;;;;6.18;3.55;;;;;;;19.12;86.65;101748.56;5009777;28;20402;-86
2023/09/06 01:21:58;;;;;;;5.93;3.28;;;;;;;19.11;86.63;101746.88;5011866;28;20083;-86
2023/09/06 01:24:25;;;;;;;9.27;3.20;;;;;;;19.12;87.39;101743.22;5026514;28;20021;-85
2023/09/06 01:26:51;;;;;;;8.85;3.42;;;;;;;19.07;87.52;101741.00;5029043;28;20025;-85
2023/09/06 01:29:18;;;;;;;7.75;3.30;;;;;;;19.01;87.38;101744.25;5029565;28;20032;-85
2023/09/06 01:31:43;;;;;;;8.35;3.45;;;;;;;19.02;86.96;101748.59;5028775;28;20017;-85
2023/09/06 01:34:08;;;;;;;6.28;3.20;;;;;;;19.03;87.63;101754.78;5018038;28;20044;-85
2023/09/06 01:36:34;;;;;;;5.05;2.90;;;;;;;18.99;87.74;101748.06;5008332;28;20125;-85
2023/09/06 01:38:59;;;;;;;5.65;3.55;;;;;;;18.97;88.70;101755.38;5009123;28;20029;-85
2023/09/06 01:41:25;;;;;;;7.28;3.40;;;;;;;18.93;88.81;101753.97;5009523;28;20061;-85
2023/09/06 01:43:53;;;;;;;6.53;3.13;;;;;;;18.92;89.58;101752.31;5027861;28;20026;-85
2023/09/06 01:46:19;;;;;;;10.05;3.50;;;;;;;18.85;89.43;101756.53;5028278;28;20033;-85
2023/09/06 01:48:46;;;;;;;7.47;3.60;;;;;;;18.77;89.79;101760.75;5028964;28;20557;-85
2023/09/06 01:51:15;;;;;;;6.28;3.22;;;;;;;18.77;90.09;101750.09;5026421;28;20024;-85
2023/09/06 01:53:44;;;;;;;8.45;3.35;;;;;;;18.69;90.77;101751.78;5029201;28;20385;-85
2023/09/06 01:56:12;;;;;;;13.13;4.00;;;;;;;18.64;90.59;101760.22;5046090;28;20033;-85
2023/09/06 01:58:37;;;;;;;7.95;3.72;;;;;;;18.63;90.97;101755.88;5026932;28;20036;-85
2023/09/06 02:01:07;;;;;;;4.78;3.30;;;;;;;18.61;90.99;101755.16;5027939;28;20026;-85
2023/09/06 02:03:33;;;;;;;9.63;3.60;;;;;;;18.55;91.06;101758.41;5027883;28;20029;-85
2023/09/06 02:06:01;;;;;;;8.48;4.03;;;;;;;18.49;91.53;101764.28;5027596;28;20536;-85
2023/09/06 02:08:26;;;;;;;4.88;3.30;;;;;;;18.54;91.62;101766.53;5008304;28;20029;-85
2023/09/06 02:10:52;;;;;;;4.70;3.53;;;;;;;18.53;91.59;101763.03;5008191;28;20017;-85
2023/09/06 02:13:17;;;;;;;4.20;3.50;;;;;;;18.51;91.92;101753.50;5011880;28;20099;-85
2023/09/06 02:15:43;;;;;;;4.43;3.28;;;;;;;18.47;92.34;101758.28;5013447;28;20105;-85
2023/09/06 02:18:09;;;;;;;5.60;3.28;;;;;;;18.46;92.12;101756.59;5022342;28;20029;-85
2023/09/06 02:20:35;;;;;;;6.93;3.75;;;;;;;18.42;92.29;101761.38;5033368;28;20028;-85
2023/09/06 02:23:01;;;;;;;6.82;4.05;;;;;;;18.41;92.45;101758.81;5021916;28;20037;-85
2023/09/06 02:25:31;;;;;;;8.13;3.67;;;;;;;18.39;92.25;101768.78;5019385;28;20033;-85
2023/09/06 02:28:10;;;;;;;6.30;4.07;;;;;;;18.37;92.11;101762.75;5033641;28;20032;-85
2023/09/06 02:30:38;;;;;;;9.25;4.25;;;;;;;18.37;91.86;101762.75;5032945;28;20017;-85
2023/09/06 02:33:04;;;;;;;5.25;3.70;;;;;;;18.35;92.06;101764.72;5033890;28;20036;-85
2023/09/06 02:35:30;;;;;;;5.03;3.58;;;;;;;18.35;92.45;101765.56;5032754;28;20065;-85
2023/09/06 02:37:56;;;;;;;3.95;3.55;;;;;;;18.30;92.87;101765.13;5031772;28;20064;-85
2023/09/06 02:40:21;;;;;;;7.70;3.78;;;;;;;18.27;93.26;101765.44;5025262;28;20022;-85
2023/09/06 02:42:51;;;;;;;5.95;3.50;;;;;;;18.25;93.49;101763.88;5017362;28;20025;-85
2023/09/06 02:45:17;;;;;;;5.00;3.92;;;;;;;18.19;93.59;101770.63;5031750;28;20029;-85
2023/09/06 02:47:49;;;;;;;6.70;3.90;;;;;;;18.10;93.97;101769.63;5030745;28;20068;-85
2023/09/06 02:50:23;;;;;;;5.33;3.60;;;;;;;18.08;93.77;101773.44;5031659;28;20029;-85
2023/09/06 02:52:50;;;;;;;5.72;3.83;;;;;;;18.00;94.38;101766.09;5032359;28;20704;-85
2023/09/06 02:55:17;;;;;;;4.60;3.78;;;;;;;17.95;94.77;101765.69;5034914;28;20053;-85
2023/09/06 02:57:43;;;;;;;5.82;3.88;;;;;;;17.87;95.21;101765.53;5027065;28;20026;-85
2023/09/06 03:00:19;;;;;;;4.05;3.50;;;;;;;17.80;95.33;101770.59;5031746;28;20027;-85
2023/09/06 03:02:47;;;;;;;4.80;3.70;;;;;;;17.72;95.78;101774.91;5029614;28;20025;-85
2023/09/06 03:05:17;;;;;;;4.60;3.33;;;;;;;17.68;95.87;101777.00;5032280;28;20079;-85
2023/09/06 03:07:44;;;;;;;5.55;3.58;;;;;;;17.55;96.56;101766.56;5031082;28;20781;-85
2023/09/06 03:10:09;;;;;;;6.38;3.67;;;;;;;17.48;97.85;101769.91;5030693;28;20079;-85
2023/09/06 03:12:35;;;;;;;5.82;3.95;;;;;;;17.41;97.74;101774.94;5031370;28;20398;-85
2023/09/06 03:15:00;;;;;;;5.85;4.28;;;;;;;17.45;97.57;101771.03;5015236;28;20026;-85
2023/09/06 03:17:26;;;;;;;4.68;3.72;;;;;;;17.37;98.24;101773.53;5038092;28;20540;-85
2023/09/06 03:19:59;;;;;;;4.25;3.63;;;;;;;17.35;98.51;101775.47;5045159;28;20062;-85
2023/09/06 03:22:27;;;;;;;6.78;3.90;;;;;;;17.25;98.33;101782.59;5028535;28;20075;-85
2023/09/06 03:24:55;;;;;;;6.03;3.92;;;;;;;17.12;99.59;101779.28;5028977;28;20044;-85
2023/09/06 03:27:21;;;;;;;5.90;4.38;;;;;;;17.12;100.00;101773.97;5030671;28;20032;-85
2023/09/06 03:29:51;;;;;;;7.18;4.72;;;;;;;17.10;100.00;101786.56;5028763;28;20033;-85
2023/09/06 03:32:17;;;;;;;5.82;3.67;;;;;;;17.07;100.00;101784.16;5027581;28;20060;-85
2023/09/06 03:34:45;;;;;;;6.70;4.40;;;;;;;17.07;100.00;101786.81;5012867;28;20478;-85
2023/09/06 03:37:11;;;;;;;4.90;4.25;;;;;;;16.96;100.00;101776.28;5025092;28;20116;-85
2023/09/06 03:39:43;;;;;;;4.68;3.90;;;;;;;16.95;100.00;101780.75;5047529;28;20048;-85
2023/09/06 03:42:15;;;;;;;4.55;3.60;;;;;;;17.00;100.00;101778.53;5032387;28;20532;-85
2023/09/06 03:44:42;;;;;;;6.80;4.40;;;;;;;16.94;100.00;101781.72;5031096;28;20445;-85
2023/09/06 03:47:14;;;;;;;6.28;3.95;;;;;;;16.86;100.00;101779.72;5026864;28;20068;-85
2023/09/06 03:49:40;;;;;;;8.02;4.03;;;;;;;16.76;100.00;101788.59;5026651;28;20025;-84
2023/09/06 03:52:08;;;;;;;4.50;4.00;;;;;;;16.72;100.00;101787.19;5028614;28;20301;-85
2023/09/06 03:54:34;;;;;;;4.85;4.25;;;;;;;16.75;100.00;101784.25;5039383;28;20397;-85
2023/09/06 03:57:04;;;;;;;6.13;4.03;;;;;;;16.72;100.00;101788.03;5051194;28;20102;-85
2023/09/06 03:59:35;;;;;;;4.05;3.65;;;;;;;16.70;100.00;101791.78;5033770;28;20072;-85
2023/09/06 04:02:02;;;;;;;6.63;4.10;;;;;;;16.70;100.00;101789.13;5031365;28;20036;-85
2023/09/06 04:04:29;;;;;;;8.63;4.00;;;;;;;16.62;100.00;101797.72;5031119;28;20057;-85
2023/09/06 04:06:54;;;;;;;8.82;4.32;;;;;;;16.57;100.00;101800.78;5022723;28;20100;-85
2023/09/06 04:09:27;;;;;;;4.85;3.70;;;;;;;16.57;100.00;101795.44;5028778;28;20108;-85
2023/09/06 04:11:52;;;;;;;;;;;;;;;16.71;99.66;101796.97;5030886;28;20044;-85
2023/09/06 04:14:18;;;;;;;6.60;4.03;;;;;;;16.49;100.00;101795.25;5029712;28;19912;-85
2023/09/06 04:16:43;;;;;;;7.40;3.97;;;;;;;16.49;100.00;101800.56;5029834;28;20421;-85
2023/09/06 04:19:09;;;;;;;8.30;3.90;;;;;;;16.38;100.00;101797.94;5031830;28;20036;-85
2023/09/06 04:21:34;;;;;;;4.95;4.45;;;;;;;16.40;100.00;101809.28;5033005;28;20021;-85
2023/09/06 04:23:59;;;;;;;5.70;3.88;;;;;;;16.39;100.00;101804.09;5026558;28;20025;-86
2023/09/06 04:26:25;;;;;;;5.95;4.47;;;;;;;16.34;100.00;101799.19;5014026;28;20386;-85
2023/09/06 04:28:51;;;;;;;4.80;4.03;;;;;;;16.33;100.00;101799.31;5029984;28;20067;-85
2023/09/06 04:31:17;;;;;;;6.57;4.10;;;;;;;16.30;100.00;101801.25;5051627;28;20029;-86
2023/09/06 04:33:44;;;;;;;4.50;3.90;;;;;;;16.25;100.00;101803.44;5038453;28;20028;-85
2023/09/06 04:36:09;;;;;;;6.00;4.00;;;;;;;16.23;100.00;101805.38;5030085;28;20045;-85
2023/09/06 04:38:35;;;;;;;5.35;4.13;;;;;;;16.21;100.00;101811.78;5028448;28;20028;-85
2023/09/06 04:41:01;;;;;;;6.90;4.28;;;;;;;16.16;100.00;101809.53;5028310;28;20020;-85
2023/09/06 04:43:28;;;;;;;5.28;4.05;;;;;;;16.17;100.00;101813.84;5023164;28;20962;-85
2023/09/06 04:45:54;;;;;;;5.25;4.20;;;;;;;16.12;100.00;101804.59;5029686;28;20025;-85
2023/09/06 04:48:23;;;;;;;5.18;4.30;;;;;;;16.13;100.00;101815.09;5030297;28;20064;-86
2023/09/06 04:50:49;;;;;;;6.10;4.10;;;;;;;16.09;100.00;101816.31;5028270;28;20386;-85
2023/09/06 04:53:17;;;;;;;6.55;4.57;;;;;;;16.11;100.00;101814.38;5030656;28;20059;-85
2023/09/06 04:55:44;;;;;;;7.63;4.32;;;;;;;16.11;100.00;101806.41;5045143;28;20041;-85
2023/09/06 04:58:11;;;;;;;7.97;5.00;;;;;;;16.04;100.00;101818.50;5036387;28;20024;-85
2023/09/06 05:00:47;;;;;;;7.18;4.90;;;;;;;16.07;100.00;101818.25;5026762;28;20022;-85
2023/09/06 05:03:17;;;;;;;6.13;4.40;;;;;;;16.10;100.00;101823.31;5026396;28;20025;-85
2023/09/06 05:05:43;;;;;;;7.47;4.57;;;;;;;16.06;100.00;101821.88;5030050;28;20053;-85
2023/09/06 05:08:12;;;;;;;7.65;4.75;;;;;;;16.07;100.00;101826.22;5028841;28;20033;-85
2023/09/06 05:10:39;;;;;;;7.57;4.95;;;;;;;16.08;100.00;101832.38;5025811;28;20434;-85
2023/09/06 05:13:07;;;;;;;6.05;5.03;;;;;;;16.10;100.00;101831.25;5027445;28;20041;-86
2023/09/06 05:15:34;;;;;;;6.90;4.70;;;;;;;16.08;100.00;101840.31;5027181;28;20120;-85
2023/09/06 05:17:59;;;;;;;10.65;5.50;;;;;;;16.08;100.00;101840.31;5028024;28;20496;-85
2023/09/06 05:20:33;;;;;;;7.85;5.20;;;;;;;16.08;100.00;101845.63;5028895;28;20017;-86
2023/09/06 05:23:03;;;;;;;7.80;5.13;;;;;;;16.11;100.00;101843.56;5028325;28;20033;-86
2023/09/06 05:25:29;;;;;;;9.13;5.20;;;;;;;16.07;100.00;101836.00;5028467;28;20470;-85
2023/09/06 05:28:06;;;;;;;9.35;5.43;;;;;;;16.08;100.00;101849.13;5029297;28;20068;-85
2023/09/06 05:30:34;;;;;;;9.70;5.88;;;;;;;16.12;100.00;101847.06;5013740;28;20062;-86
2023/09/06 05:32:59;;;;;;;9.75;5.70;;;;;;;16.12;100.00;101847.06;5013223;28;20100;-86
2023/09/06 05:35:25;;;;;;;9.02;6.15;;;;;;;16.16;100.00;101848.50;5029652;28;20032;-85
2023/09/06 05:37:51;;;;;;;11.02;5.47;;;;;;;16.17;100.00;101851.03;5044924;28;20040;-85
2023/09/06 05:40:23;;;;;;;7.75;6.10;;;;;;;16.20;100.00;101845.47;5032795;28;20026;-85
2023/09/06 05:42:52;;;;;;;6.82;5.93;;;;;;;16.25;100.00;101856.56;5032365;28;20493;-86
2023/09/06 05:45:24;;;;;;;9.43;6.10;;;;;;;16.21;100.00;101849.81;5029362;28;20109;-86
2023/09/06 05:47:50;;;;;;;9.37;6.30;;;;;;;16.32;100.00;101850.75;5023357;28;20045;-86
2023/09/06 05:50:16;;;;;;;9.10;6.28;;;;;;;16.33;100.00;101855.09;5024585;28;20111;-85
2023/09/06 05:52:44;;;;;;;9.15;6.47;;;;;;;16.38;100.00;101863.50;5027844;28;20755;-86
2023/09/06 05:55:10;;;;;;;10.60;6.78;;;;;;;16.43;100.00;101858.69;5036700;28;20033;-86
2023/09/06 05:57:37;;;;;;;7.30;5.65;;;;;;;16.44;100.00;101858.56;5027283;28;20017;-85
2023/09/06 06:00:12;;;;;;;10.40;7.15;;;;;;;16.49;100.00;101861.69;5026514;28;20032;-85
2023/09/06 06:02:38;;;;;;;10.25;7.50;;;;;;;16.54;100.00;101861.28;5007904;28;20018;-85
2023/09/06 06:05:04;;;;;;;14.55;7.43;;;;;;;16.55;100.00;101855.84;5014149;28;20438;-85
2023/09/06 06:07:30;;;;;;;15.40;7.90;;;;;;;16.65;100.00;101857.75;5022538;28;20120;-85
2023/09/06 06:09:55;;;;;;;11.88;7.88;;;;;;;16.71;100.00;101858.09;5028045;28;20025;-85
2023/09/06 06:12:22;;;;;;;12.90;7.88;;;;;;;16.75;100.00;101854.22;5029088;28;20041;-85
2023/09/06 06:14:51;;;;;;;9.57;7.70;;;;;;;16.82;100.00;101860.72;5028389;28;20072;-85
2023/09/06 06:17:18;;;;;;;12.60;7.72;;;;;;;16.89;100.00;101861.03;5029108;28;20036;-85
2023/09/06 06:19:44;;;;;;;10.98;7.90;;;;;;;16.97;100.00;101863.88;5025318;28;20350;-85
2023/09/06 06:22:10;;;;;;;13.52;7.80;;;;;;;17.05;100.00;101871.22;5028191;28;20413;-85
2023/09/06 06:24:36;;;;;;;10.23;7.18;;;;;;;17.15;100.00;101870.28;5026549;28;20083;-85
2023/09/06 06:27:02;;;;;;;14.55;7.38;;;;;;;17.20;100.00;101861.91;5028158;28;20029;-85
2023/09/06 06:29:29;;;;;;;13.02;7.43;;;;;;;17.26;100.00;101866.72;5040609;28;20024;-85
2023/09/06 06:31:55;;;;;;;18.70;7.68;;;;;;;17.38;100.00;101870.97;5035051;28;20454;-86
2023/09/06 06:34:21;;;;;;;13.55;7.55;;;;;;;17.42;100.00;101869.75;5028161;28;20179;-85
2023/09/06 06:36:46;;;;;;;12.38;6.88;;;;;;;17.50;100.00;101875.25;5027475;28;20108;-85
2023/09/06 06:39:12;;;;;;;17.63;7.65;;;;;;;17.59;100.00;101867.41;5026312;28;20033;-85
2023/09/06 06:41:38;;;;;;;21.05;7.68;;;;;;;17.69;100.00;101868.34;5027587;28;20112;-84
2023/09/06 06:44:04;;;;;;;13.43;7.38;;;;;;;17.82;100.00;101871.63;5029795;28;20029;-84
2023/09/06 06:46:33;;;;;;;12.52;7.25;;;;;;;17.91;100.00;101872.63;5029260;28;20057;-85
2023/09/06 06:49:01;;;;;;;13.68;7.32;;;;;;;17.99;99.86;101873.63;5027744;28;20061;-85
2023/09/06 06:51:28;;;;;;;13.65;7.00;;;;;;;18.12;100.00;101874.22;5027976;28;20036;-85
2023/09/06 06:53:54;;;;;;;11.18;6.35;;;;;;;18.31;98.09;101873.41;5029574;28;20509;-87
2023/09/06 06:56:21;;;;;;;11.52;6.43;;;;;;;18.47;96.39;101876.38;5026609;28;20030;-87
2023/09/06 06:58:50;;;;;;;8.90;5.57;;;;;;;18.68;95.19;101878.91;5009636;28;20391;-86
2023/09/06 07:01:16;;;;;;;9.45;5.90;;;;;;;18.87;94.51;101871.91;5022324;28;20018;-82
2023/09/06 07:03:44;;;;;;;11.13;6.05;;;;;;;19.07;92.63;101882.38;5029350;28;20036;-82
2023/09/06 07:06:13;;;;;;;12.20;5.53;;;;;;;19.27;91.14;101887.69;5031750;28;20373;-82
2023/09/06 07:08:38;;;;;;;11.80;5.50;;;;;;;19.45;89.39;101888.63;5031712;28;20013;-82
2023/09/06 07:11:04;;;;;;;8.57;4.88;;;;;;;19.61;90.06;101888.00;5031040;28;20115;-82
2023/09/06 07:13:31;;;;;;;8.73;5.10;;;;;;;19.83;87.87;101887.66;5025600;28;20112;-82
2023/09/06 07:15:56;;;;;;;11.75;4.88;;;;;;;20.06;87.26;101887.25;5030285;28;20025;-81
2023/09/06 07:18:22;;;;;;;8.02;5.00;;;;;;;20.21;86.42;101880.41;5045162;28;20029;-82
2023/09/06 07:20:47;;;;;;;6.65;4.43;;;;;;;20.40;83.32;101877.59;5030475;28;20052;-81
2023/09/06 07:23:13;;;;;;;8.18;3.95;;;;;;;20.60;82.16;101879.16;5030559;28;20159;-81
2023/09/06 07:25:43;;;;;;;8.52;4.40;;;;;;;20.86;80.39;101881.88;5031476;28;20021;-81
2023/09/06 07:28:08;;;;;;;8.38;3.72;;;;;;;21.11;78.99;101885.56;5030497;28;20036;-83
2023/09/06 07:30:34;;;;;;;6.78;4.13;;;;;;;21.38;78.80;101883.78;5026361;28;20029;-83
2023/09/06 07:32:59;;;;;;;10.63;4.13;;;;;;;21.60;77.85;101875.16;5030597;28;20022;-83
2023/09/06 07:35:24;;;;;;;6.88;3.35;;;;;;;21.85;76.36;101874.28;5028671;28;20029;-83
2023/09/06 07:37:51;;;;;;;7.20;3.40;;;;;;;22.08;73.05;101879.09;5029691;28;20489;-83
2023/09/06 07:40:16;;;;;;;5.90;3.10;;;;;;;22.22;73.65;101878.44;5025236;28;20490;-83
2023/09/06 07:42:42;;;;;;;5.57;3.47;;;;;;;22.55;72.66;101881.19;5030500;28;20103;-83
2023/09/06 07:45:08;;;;;;;6.20;3.40;;;;;;;22.79;71.46;101878.50;5031186;28;20108;-83
2023/09/06 07:47:34;;;;;;;5.00;3.28;;;;;;;23.04;69.26;101876.66;5028786;28;20053;-83
2023/09/06 07:50:00;;;;;;;10.57;3.58;;;;;;;23.19;68.35;101879.50;5032934;28;20029;-84
2023/09/06 07:52:25;;;;;;;4.55;2.78;;;;;;;23.47;67.04;101877.25;5029519;28;20025;-85
2023/09/06 07:54:51;;;;;;;7.80;3.15;;;;;;;23.68;66.72;101880.25;5032345;28;20025;-84
2023/09/06 07:57:16;;;;;;;7.10;3.20;;;;;;;23.85;66.06;101881.00;5046693;28;20032;-85
2023/09/06 07:59:44;;;;;;;6.32;2.90;;;;;;;24.08;64.22;101875.69;5029991;28;20030;-84
2023/09/06 08:02:10;;;;;;;5.13;2.80;;;;;;;24.17;63.78;101878.13;5029539;28;20029;-85
2023/09/06 08:04:40;;;;;;;7.18;2.90;;;;;;;24.40;62.43;101880.03;5031934;28;20021;-85
2023/09/06 08:07:05;;;;;;;7.13;2.97;;;;;;;24.51;62.03;101882.31;5030738;28;20033;-84
2023/09/06 08:09:31;;;;;;;9.45;2.90;;;;;;;24.79;62.74;101894.19;5032192;28;20040;-85
2023/09/06 08:11:56;;;;;;;8.52;3.00;;;;;;;24.93;61.27;101881.81;5031671;28;20870;-85
2023/09/06 08:14:22;;;;;;;7.63;3.13;;;;;;;25.21;60.41;101890.13;5031379;28;20032;-85
2023/09/06 08:16:47;;;;;;;7.35;3.08;;;;;;;25.35;60.11;101892.03;5031832;28;20116;-84
2023/09/06 08:19:13;;;;;;;4.47;2.97;;;;;;;25.43;59.33;101888.41;5031625;28;20021;-85
2023/09/06 08:21:44;;;;;;;7.13;3.08;;;;;;;25.61;58.99;101881.59;5030829;28;20025;-84
2023/09/06 08:24:09;;;;;;;8.88;3.20;;;;;;;25.79;57.09;101891.19;5031716;28;20079;-85
2023/09/06 08:26:47;;;;;;;6.10;2.95;;;;;;;25.93;58.11;101884.94;5030207;28;20473;-85
2023/09/06 08:29:15;;;;;;;5.43;2.83;;;;;;;26.09;56.50;101884.72;5042974;28;20029;-84
2023/09/06 08:31:44;;;;;;;4.95;2.92;;;;;;;26.21;54.45;101885.91;5046876;28;20030;-84
2023/09/06 08:34:11;;;;;;;5.50;2.60;;;;;;;26.33;54.06;101885.38;5030058;28;20089;-83
2023/09/06 08:36:37;;;;;;;5.75;2.63;;;;;;;26.55;54.23;101884.41;5030549;28;20057;-84
2023/09/06 08:39:03;;;;;;;6.28;3.10;;;;;;;26.71;53.65;101880.59;5029523;28;20532;-84
2023/09/06 08:41:33;;;;;;;4.32;3.10;;;;;;;26.77;52.07;101877.94;5028711;28;20112;-84
2023/09/06 08:44:03;;;;;;;4.53;3.05;;;;;;;26.99;52.58;101869.84;5029195;28;20040;-85
2023/09/06 08:46:38;;;;;;;6.22;3.00;;;;;;;27.19;53.19;101878.09;5028651;28;20080;-84
2023/09/06 08:49:12;;;;;;;7.15;2.90;;;;;;;27.31;51.97;101874.66;5022999;28;20037;-85
2023/09/06 08:51:39;;;;;;;6.07;3.30;;;;;;;27.47;50.81;101878.88;5010751;28;20105;-85
2023/09/06 08:54:05;;;;;;;5.18;2.75;;;;;;;27.60;52.09;101872.72;5018515;28;20108;-84
2023/09/06 08:56:34;;;;;;;5.40;3.20;;;;;;;27.69;51.23;101877.81;5048528;28;20163;-84
2023/09/06 08:59:02;;;;;;;9.02;2.92;;;;;;;27.73;51.47;101884.47;5050133;28;20086;-85
2023/09/06 09:01:31;;;;;;;8.45;2.63;;;;;;;27.91;49.51;101875.78;5049458;28;20498;-84
2023/09/06 09:03:56;;;;;;;4.38;2.30;;;;;;;27.98;48.91;101882.06;5048362;28;20120;-85
2023/09/06 09:06:22;;;;;;;8.73;2.70;;;;;;;28.04;48.32;101877.72;5041586;28;20442;-84
2023/09/06 09:08:49;;;;;;;6.25;2.53;;;;;;;28.15;48.66;101871.72;5018828;28;20029;-84
2023/09/06 09:11:20;;;;;;;3.83;2.42;;;;;;;28.26;47.63;101873.84;5029925;28;20030;-84
2023/09/06 09:13:46;;;;;;;5.28;2.53;;;;;;;28.44;48.50;101873.28;5029673;28;20601;-85
2023/09/06 09:16:16;;;;;;;7.20;2.80;;;;;;;28.61;49.03;101870.97;5028045;28;20021;-84
2023/09/06 09:18:45;;;;;;;4.18;2.70;;;;;;;28.55;48.08;101872.66;5028366;28;20025;-84
2023/09/06 09:21:13;;;;;;;4.22;2.40;;;;;;;28.88;47.33;101882.69;5028428;28;20021;-85
2023/09/06 09:23:46;;;;;;;4.88;2.17;;;;;;;28.94;48.52;101882.69;5027033;28;20029;-83
2023/09/06 09:26:13;;;;;;;4.82;2.45;;;;;;;29.02;47.20;101878.91;5027079;28;20034;-83
2023/09/06 09:28:44;;;;;;;4.55;2.58;;;;;;;28.85;47.07;101883.13;5039277;28;20099;-84
2023/09/06 09:31:13;;;;;;;8.03;2.60;;;;;;;28.92;47.65;101879.34;5030847;28;20021;-83
2023/09/06 09:33:39;;;;;;;7.65;2.40;;;;;;;28.99;48.50;101879.34;5043262;28;20017;-83
2023/09/06 09:36:21;;;;;;;3.03;2.25;;;;;;;29.05;48.19;101881.22;5035253;28;20032;-83
2023/09/06 09:38:50;;;;;;;4.47;2.40;;;;;;;28.92;47.58;101883.94;5035389;28;20524;-83
2023/09/06 09:41:16;;;;;;;6.18;2.38;;;;;;;28.87;46.54;101872.91;5048187;28;20025;-84
2023/09/06 09:43:45;;;;;;;4.53;2.22;;;;;;;28.73;46.61;101874.72;5030795;28;20119;-83
2023/09/06 09:46:10;;;;;;;6.60;2.53;;;;;;;28.63;46.34;101872.44;5029173;28;20079;-82
2023/09/06 09:48:36;;;;;;;3.65;2.08;;;;;;;28.90;46.18;101870.59;5028532;28;20037;-83
2023/09/06 09:51:04;;;;;;;5.82;2.38;;;;;;;29.40;45.94;101867.38;5039038;28;20033;-83
2023/09/06 09:53:32;;;;;;;4.55;1.95;;;;;;;29.65;44.42;101873.81;5039949;28;20029;-83
2023/09/06 09:56:03;;;;;;;3.33;2.33;;;;;;;29.62;43.74;101868.81;5047431;28;20028;-83
2023/09/06 09:58:33;;;;;;;5.30;2.50;;;;;;;29.41;44.03;101871.75;5025758;28;20481;-83
2023/09/06 10:00:59;;;;;;;4.40;2.40;;;;;;;29.15;44.43;101868.06;5027883;28;20017;-83
2023/09/06 10:03:28;;;;;;;4.93;2.38;;;;;;;28.92;44.80;101867.69;5044599;28;20477;-84
2023/09/06 10:05:59;;;;;;;3.97;2.40;;;;;;;28.88;45.87;101871.84;5042091;28;20029;-81
2023/09/06 10:08:27;;;;;;;5.35;2.33;;;;;;;28.90;46.60;101869.78;5028280;28;20053;-82
2023/09/06 10:10:53;;;;;;;4.43;2.63;;;;;;;29.04;44.97;101870.59;5028245;28;20079;-82
2023/09/06 10:13:26;;;;;;;4.70;2.65;;;;;;;29.06;46.24;101869.31;5025771;28;20128;-82
2023/09/06 10:15:53;;;;;;;3.60;2.33;;;;;;;29.10;45.80;101867.84;5025134;28;20068;-82
2023/09/06 10:18:18;;;;;;;5.47;2.67;;;;;;;29.25;47.17;101857.63;5027154;28;20491;-82
2023/09/06 10:20:47;;;;;;;4.88;2.45;;;;;;;29.45;46.31;101868.44;5027274;28;20013;-83
2023/09/06 10:23:13;;;;;;;5.28;2.42;;;;;;;29.25;45.21;101857.63;5038647;28;20048;-82
2023/09/06 10:25:49;;;;;;;6.63;2.65;;;;;;;29.17;44.88;101865.13;5046696;28;20024;-82
2023/09/06 10:28:14;;;;;;;4.90;2.60;;;;;;;29.06;43.29;101860.38;5031725;28;20155;-82
2023/09/06 10:30:50;;;;;;;7.45;2.63;;;;;;;28.96;44.49;101858.09;5048398;28;20534;-83
2023/09/06 10:33:34;;;;;;;7.05;2.40;;;;;;;29.07;44.78;101860.16;5025451;28;20056;-82
2023/09/06 10:36:05;;;;;;;5.60;2.42;;;;;;;29.20;44.16;101862.00;5043881;28;20094;-83
2023/09/06 10:38:33;;;;;;;4.10;2.63;;;;;;;29.29;44.05;101853.44;5051996;28;20519;-83
2023/09/06 10:41:04;;;;;;;3.00;2.50;;;;;;;29.50;43.60;101854.22;5052011;28;20074;-83
2023/09/06 10:43:51;;;;;;;4.80;2.90;;;;;;;29.59;44.85;101852.94;5033345;28;20033;-83
2023/09/06 10:46:19;;;;;;;3.25;2.53;;;;;;;29.51;43.21;101847.75;5046713;28;20112;-82
2023/09/06 10:49:23;;;;;;;3.97;2.58;;;;;;;29.70;44.64;101855.00;5045292;28;20501;-83
2023/09/06 10:52:02;;;;;;;5.18;2.58;;;;;;;29.70;43.36;101843.31;5033073;28;20031;-83
2023/09/06 10:54:34;;;;;;;6.40;3.03;;;;;;;29.79;42.29;101837.41;5039804;28;20056;-83
2023/09/06 10:57:02;;;;;;;5.15;2.60;;;;;;;29.81;42.88;101835.31;5052067;28;20021;-82
2023/09/06 10:59:28;;;;;;;4.93;2.50;;;;;;;29.79;42.75;101831.16;5029817;28;20569;-82
2023/09/06 11:02:24;;;;;;;5.30;2.80;;;;;;;30.06;44.71;101845.47;5048326;28;20036;-83
2023/09/06 11:05:05;;;;;;;6.60;2.65;;;;;;;30.19;43.68;101831.78;5043209;28;20036;-83
2023/09/06 11:07:47;;;;;;;3.75;2.55;;;;;;;30.28;43.28;101838.63;5035297;28;20040;-83
2023/09/06 11:10:22;;;;;;;4.70;2.70;;;;;;;30.27;42.20;101841.56;5030930;28;20032;-83
2023/09/06 11:12:47;;;;;;;6.93;2.70;;;;;;;30.26;42.01;101838.00;5032919;28;20035;-82
2023/09/06 11:15:13;;;;;;;5.38;2.95;;;;;;;30.18;42.25;101832.84;5032255;28;20021;-82
2023/09/06 11:17:42;;;;;;;4.03;2.70;;;;;;;30.10;40.94;101830.41;5030464;28;20021;-83
2023/09/06 11:20:12;;;;;;;7.20;2.85;;;;;;;29.84;40.21;101824.03;5043352;28;20040;-82
2023/09/06 11:22:58;;;;;;;4.55;3.00;;;;;;;29.80;41.33;101825.53;5049667;28;20108;-83
2023/09/06 11:25:26;;;;;;;3.60;2.70;;;;;;;30.00;41.09;101816.41;5033673;28;20026;-81